Time;durP1;ratioP1;P1;durP2;ratioP2;P2;SDS_P1;SDS_P2;PMS_P1;PMS_P2;Temp;Humidity;BMP_temperature;BMP_pressure;BME280_temperature;BME280_humidity;BME280_pressure;Samples;Min_cycle;Max_cycle;Signal;HPM_P1;HPM_P2
2021/11/23 00:01:47;;;;;;;6.05;3.80;;;;;;;3.56;100.00;101924.75;5157951;28;20191;-76
2021/11/23 00:04:18;;;;;;;8.60;3.90;;;;;;;3.61;100.00;101921.38;5154759;28;20033;-75
2021/11/23 00:06:48;;;;;;;8.13;4.20;;;;;;;3.82;100.00;101917.34;5161669;28;20038;-76
2021/11/23 00:09:18;;;;;;;6.45;4.07;;;;;;;3.76;100.00;101913.84;5169255;28;20033;-75
2021/11/23 00:11:49;;;;;;;7.13;4.25;;;;;;;3.87;100.00;101913.13;5159302;28;20109;-76
2021/11/23 00:14:19;;;;;;;7.57;3.85;;;;;;;3.84;100.00;101905.31;5155053;28;20035;-78
2021/11/23 00:16:49;;;;;;;6.40;3.95;;;;;;;3.86;100.00;101906.22;5149443;28;20027;-75
2021/11/23 00:19:20;;;;;;;9.57;4.03;;;;;;;3.82;100.00;101914.75;5154922;28;20087;-76
2021/11/23 00:21:50;;;;;;;6.78;3.67;;;;;;;3.80;100.00;101903.53;5154391;28;20485;-77
2021/11/23 00:24:21;;;;;;;7.05;3.92;;;;;;;3.86;100.00;101906.22;5154490;28;20034;-76
2021/11/23 00:26:51;;;;;;;6.55;3.60;;;;;;;3.87;100.00;101905.34;5154969;28;20495;-75
2021/11/23 00:29:22;;;;;;;7.20;4.03;;;;;;;4.00;100.00;101915.00;5155761;28;20034;-76
2021/11/23 00:31:52;;;;;;;9.43;4.30;;;;;;;4.02;100.00;101918.47;5155763;28;20026;-77
2021/11/23 00:34:23;;;;;;;7.95;4.30;;;;;;;4.03;100.00;101912.47;5155545;28;20062;-78
2021/11/23 00:36:54;;;;;;;7.38;3.97;;;;;;;4.03;100.00;101909.88;5165118;28;20022;-77
2021/11/23 00:39:24;;;;;;;6.55;3.88;;;;;;;4.11;100.00;101908.22;5147414;28;20019;-78
2021/11/23 00:41:55;;;;;;;8.40;3.97;;;;;;;4.08;100.00;101897.84;5150948;28;20037;-78
2021/11/23 00:44:25;;;;;;;11.52;3.72;;;;;;;4.06;100.00;101896.97;5149692;28;20061;-76
2021/11/23 00:46:56;;;;;;;7.85;3.92;;;;;;;4.19;100.00;101896.28;5148633;28;20026;-77
2021/11/23 00:49:26;;;;;;;7.97;3.78;;;;;;;4.19;100.00;101897.97;5165547;28;20030;-77
2021/11/23 00:51:57;;;;;;;7.40;3.88;;;;;;;4.11;100.00;101895.28;5169710;28;20034;-78
2021/11/23 00:54:27;;;;;;;6.07;3.55;;;;;;;4.12;100.00;101876.34;5164825;28;20047;-78
2021/11/23 00:56:57;;;;;;;9.43;3.95;;;;;;;4.25;100.00;101878.22;5168349;28;20037;-77
2021/11/23 00:59:28;;;;;;;5.30;3.45;;;;;;;4.23;100.00;101877.34;5165155;28;20094;-78
2021/11/23 01:01:58;;;;;;;8.15;4.05;;;;;;;4.28;100.00;101877.38;5158384;28;20038;-77
2021/11/23 01:04:29;;;;;;;8.85;4.20;;;;;;;4.16;100.00;101878.09;5157602;28;20030;-77
2021/11/23 01:06:59;;;;;;;7.20;4.18;;;;;;;4.18;100.00;101871.25;5157006;28;20397;-75
2021/11/23 01:09:30;;;;;;;9.98;4.10;;;;;;;4.19;100.00;101865.22;5150449;28;20031;-77
2021/11/23 01:12:00;;;;;;;10.10;4.15;;;;;;;4.13;100.00;101861.69;5150803;28;20035;-77
2021/11/23 01:14:31;;;;;;;8.57;3.83;;;;;;;4.14;100.00;101853.94;5159936;28;20035;-75
2021/11/23 01:17:01;;;;;;;9.95;3.83;;;;;;;4.17;100.00;101838.47;5157017;28;20477;-75
2021/11/23 01:19:32;;;;;;;7.70;4.13;;;;;;;4.20;100.00;101829.84;5154225;28;20034;-75
2021/11/23 01:22:02;;;;;;;9.70;3.95;;;;;;;4.20;100.00;101828.16;5158061;28;20034;-75
2021/11/23 01:24:33;;;;;;;6.82;3.90;;;;;;;4.22;100.00;101834.22;5161904;28;20078;-75
2021/11/23 01:27:03;;;;;;;6.03;3.30;;;;;;;4.25;100.00;101826.47;5157602;28;20026;-77
2021/11/23 01:29:35;;;;;;;9.20;3.90;;;;;;;4.28;100.00;101826.50;5159910;28;20476;-76
2021/11/23 01:32:05;;;;;;;9.43;4.47;;;;;;;4.23;100.00;101833.34;5155699;28;20050;-75
2021/11/23 01:34:36;;;;;;;11.10;4.25;;;;;;;4.31;100.00;101830.84;5158200;28;20039;-76
2021/11/23 01:37:06;;;;;;;8.07;3.92;;;;;;;4.19;100.00;101821.25;5160964;28;20026;-77
2021/11/23 01:39:37;;;;;;;8.32;3.85;;;;;;;4.17;100.00;101833.31;5158227;28;20035;-76
2021/11/23 01:42:07;;;;;;;10.10;4.18;;;;;;;4.13;100.00;101839.28;5160052;28;20115;-75
2021/11/23 01:44:38;;;;;;;7.60;3.63;;;;;;;4.18;100.00;101828.97;5158606;28;20498;-77
2021/11/23 01:47:08;;;;;;;11.20;4.60;;;;;;;4.22;100.00;101834.22;5156414;28;20031;-76
2021/11/23 01:49:39;;;;;;;9.43;3.97;;;;;;;4.21;100.00;101835.06;5157192;28;20037;-78
2021/11/23 01:52:09;;;;;;;9.77;4.03;;;;;;;4.24;100.00;101841.97;5160372;28;20105;-78
2021/11/23 01:54:40;;;;;;;7.90;3.85;;;;;;;4.21;100.00;101832.47;5157409;28;20445;-76
2021/11/23 01:57:11;;;;;;;11.95;4.75;;;;;;;4.18;100.00;101840.22;5159957;28;20033;-76
2021/11/23 01:59:42;;;;;;;10.40;4.82;;;;;;;4.20;100.00;101828.16;5157060;28;20491;-76
2021/11/23 02:02:14;;;;;;;9.68;5.00;;;;;;;4.33;100.00;101835.16;5154672;28;20476;-76
2021/11/23 02:04:45;;;;;;;9.07;4.18;;;;;;;4.28;100.00;101826.50;5158230;28;20057;-76
2021/11/23 02:07:17;;;;;;;11.02;4.07;;;;;;;4.38;100.00;101833.50;5158868;28;20085;-75
2021/11/23 02:09:48;;;;;;;7.35;4.32;;;;;;;4.47;100.00;101830.97;5159639;28;20436;-76
2021/11/23 02:12:19;;;;;;;7.20;4.10;;;;;;;4.52;100.00;101836.22;5140689;28;20038;-76
2021/11/23 02:14:49;;;;;;;8.70;3.95;;;;;;;4.52;100.00;101828.44;5156981;28;20110;-76
2021/11/23 02:17:20;;;;;;;8.73;3.95;;;;;;;4.48;100.00;101832.72;5155136;28;20058;-77
2021/11/23 02:19:53;;;;;;;10.55;3.95;;;;;;;4.49;100.00;101834.44;5158069;28;20082;-77
2021/11/23 02:22:24;;;;;;;8.93;4.15;;;;;;;4.52;100.00;101837.09;5157393;28;20034;-76
2021/11/23 02:24:54;;;;;;;8.48;4.22;;;;;;;4.48;100.00;101822.38;5158911;28;20392;-76
2021/11/23 02:27:24;;;;;;;9.20;4.32;;;;;;;4.53;100.00;101818.13;5157593;28;20177;-77
2021/11/23 02:29:55;;;;;;;7.38;4.53;;;;;;;4.61;100.00;101826.81;5156567;28;20034;-76
2021/11/23 02:32:25;;;;;;;8.35;4.10;;;;;;;4.59;100.00;101828.50;5154365;28;20076;-76
2021/11/23 02:34:56;;;;;;;8.38;4.18;;;;;;;4.68;100.00;101820.84;5159176;28;20146;-76
2021/11/23 02:37:26;;;;;;;7.85;4.43;;;;;;;4.54;100.00;101825.03;5157157;28;20019;-77
2021/11/23 02:39:56;;;;;;;8.15;4.20;;;;;;;4.57;100.00;101817.28;5159055;28;20022;-76
2021/11/23 02:42:27;;;;;;;6.70;4.22;;;;;;;4.55;100.00;101821.59;5157093;28;20050;-77
2021/11/23 02:44:57;;;;;;;9.05;4.45;;;;;;;4.62;100.00;101815.59;5159568;28;20034;-78
2021/11/23 02:47:32;;;;;;;7.38;3.88;;;;;;;4.57;100.00;101827.63;5154424;28;20030;-75
2021/11/23 02:50:04;;;;;;;;;;;;;;;4.49;100.00;101821.50;5151929;28;20029;-76
2021/11/23 02:52:34;;;;;;;11.80;4.38;;;;;;;4.52;100.00;101823.25;5159328;28;20342;-76
2021/11/23 02:55:05;;;;;;;7.43;3.97;;;;;;;4.69;100.00;101824.28;5156069;28;20023;-76
2021/11/23 02:57:36;;;;;;;7.95;4.10;;;;;;;4.60;100.00;101824.22;5158072;28;20388;-76
2021/11/23 03:00:19;;;;;;;8.63;3.90;;;;;;;4.59;100.00;101802.63;5154361;28;20026;-77
2021/11/23 03:02:50;;;;;;;5.63;3.70;;;;;;;4.73;100.00;101813.97;5150068;28;20027;-75
2021/11/23 03:05:23;;;;;;;11.65;4.15;;;;;;;4.81;100.00;101814.88;5158793;28;20132;-75
2021/11/23 03:07:55;;;;;;;6.95;3.85;;;;;;;4.72;100.00;101819.13;5158285;28;20039;-76
2021/11/23 03:10:30;;;;;;;9.23;3.53;;;;;;;4.69;100.00;101819.97;5141885;28;20018;-78
2021/11/23 03:13:01;;;;;;;8.48;4.05;;;;;;;4.56;100.00;101815.56;5157191;28;20042;-76
2021/11/23 03:15:32;;;;;;;9.30;4.10;;;;;;;4.60;100.00;101819.03;5148853;28;20075;-75
2021/11/23 03:18:02;;;;;;;9.77;3.63;;;;;;;4.61;100.00;101816.44;5146252;28;20023;-75
2021/11/23 03:20:33;;;;;;;6.50;3.72;;;;;;;4.69;100.00;101817.41;5155337;28;20385;-75
2021/11/23 03:23:05;;;;;;;6.78;3.83;;;;;;;4.77;100.00;101815.72;5155960;28;20240;-76
2021/11/23 03:25:36;;;;;;;7.88;3.35;;;;;;;4.88;100.00;101808.03;5159535;28;20018;-75
2021/11/23 03:28:06;;;;;;;6.95;3.72;;;;;;;4.98;100.00;101809.84;5155725;28;20031;-75
2021/11/23 03:30:37;;;;;;;7.82;3.50;;;;;;;4.99;100.00;101808.97;5156254;28;20088;-77
2021/11/23 03:33:09;;;;;;;8.32;3.58;;;;;;;4.93;100.00;101799.44;5156190;28;20030;-76
2021/11/23 03:35:42;;;;;;;6.85;3.72;;;;;;;4.98;100.00;101800.31;5156432;28;20026;-77
2021/11/23 03:38:14;;;;;;;9.57;3.92;;;;;;;4.92;100.00;101797.69;5159153;28;20031;-77
2021/11/23 03:40:44;;;;;;;8.18;3.88;;;;;;;4.82;100.00;101784.69;5161209;28;20118;-76
2021/11/23 03:43:15;;;;;;;6.53;3.67;;;;;;;4.92;100.00;101800.28;5160290;28;20050;-77
2021/11/23 03:45:46;;;;;;;9.25;3.78;;;;;;;4.96;100.00;101799.44;5160891;28;20046;-76
2021/11/23 03:48:16;;;;;;;10.77;4.18;;;;;;;5.09;100.00;101793.50;5158503;28;20499;-77
2021/11/23 03:50:47;;;;;;;7.68;3.55;;;;;;;5.06;100.00;101800.38;5161010;28;20585;-77
2021/11/23 03:53:17;;;;;;;9.32;3.80;;;;;;;5.13;100.00;101796.97;5161274;28;20034;-77
2021/11/23 03:55:50;;;;;;;9.05;3.75;;;;;;;5.19;100.00;101795.25;5162366;28;20054;-75
2021/11/23 03:58:20;;;;;;;9.77;3.60;;;;;;;5.12;100.00;101801.28;5143133;28;20038;-75
2021/11/23 04:00:50;;;;;;;8.93;3.53;;;;;;;5.09;100.00;101801.25;5158569;28;20030;-75
2021/11/23 04:03:21;;;;;;;7.60;3.88;;;;;;;5.09;100.00;101801.25;5153156;28;20038;-76
2021/11/23 04:05:51;;;;;;;9.93;3.78;;;;;;;5.11;100.00;101799.53;5158665;28;20034;-78
2021/11/23 04:08:22;;;;;;;8.25;4.78;;;;;;;5.16;100.00;101792.66;5158568;28;20030;-77
2021/11/23 04:10:53;;;;;;;9.50;4.10;;;;;;;5.06;100.00;101793.47;5157058;28;20023;-77
2021/11/23 04:13:23;;;;;;;15.55;4.38;;;;;;;5.01;100.00;101794.31;5154288;28;20048;-77
2021/11/23 04:15:54;;;;;;;7.65;3.85;;;;;;;5.03;100.00;101801.25;5157503;28;20497;-77
2021/11/23 04:18:24;;;;;;;9.73;4.03;;;;;;;5.06;100.00;101801.25;5150258;28;20085;-77
2021/11/23 04:20:54;;;;;;;8.80;4.00;;;;;;;5.14;100.00;101790.94;5154120;28;20030;-77
2021/11/23 04:23:25;;;;;;;9.50;4.15;;;;;;;5.13;100.00;101799.56;5156425;28;20408;-77
2021/11/23 04:25:56;;;;;;;9.52;4.47;;;;;;;5.24;100.00;101798.75;5152578;28;20433;-77
2021/11/23 04:28:26;;;;;;;10.27;4.28;;;;;;;5.14;100.00;101801.31;5135602;28;20053;-77
2021/11/23 04:30:56;;;;;;;9.35;4.70;;;;;;;5.21;100.00;101800.47;5156884;28;20434;-78
2021/11/23 04:33:27;;;;;;;10.90;4.72;;;;;;;5.30;100.00;101800.53;5142103;28;20081;-77
2021/11/23 04:35:57;;;;;;;7.05;4.15;;;;;;;5.35;100.00;101804.84;5138777;28;20038;-77
2021/11/23 04:38:28;;;;;;;10.20;5.10;;;;;;;5.17;100.00;101809.94;5159786;28;20432;-77
2021/11/23 04:40:58;;;;;;;9.35;4.68;;;;;;;5.26;100.00;101798.75;5157934;28;20031;-77
2021/11/23 04:43:29;;;;;;;9.15;4.75;;;;;;;5.15;100.00;101796.09;5161826;28;20041;-78
2021/11/23 04:45:59;;;;;;;11.38;5.10;;;;;;;5.18;100.00;101805.63;5137043;28;20368;-78
2021/11/23 04:48:30;;;;;;;10.45;4.68;;;;;;;5.27;100.00;101795.31;5154448;28;20527;-77
2021/11/23 04:51:01;;;;;;;9.48;4.90;;;;;;;5.33;100.00;101793.63;5159316;28;20034;-77
2021/11/23 04:53:31;;;;;;;9.43;4.72;;;;;;;5.17;100.00;101804.75;5148177;28;20026;-78
2021/11/23 04:56:02;;;;;;;10.63;4.78;;;;;;;5.13;100.00;101805.59;5154781;28;20037;-78
2021/11/23 04:58:33;;;;;;;11.40;5.47;;;;;;;5.13;100.00;101803.00;5142650;28;20056;-76
2021/11/23 05:01:03;;;;;;;12.48;5.22;;;;;;;5.03;100.00;101797.75;5155233;28;20038;-77
2021/11/23 05:03:34;;;;;;;13.07;5.53;;;;;;;4.93;100.00;101789.06;5154264;28;20476;-78
2021/11/23 05:06:04;;;;;;;12.65;5.82;;;;;;;4.98;100.00;101791.69;5157729;28;20089;-75
2021/11/23 05:08:34;;;;;;;11.27;6.05;;;;;;;5.03;100.00;101785.69;5158353;28;20062;-77
2021/11/23 05:11:05;;;;;;;12.05;6.28;;;;;;;5.03;100.00;101780.50;5161136;28;20034;-76
2021/11/23 05:13:36;;;;;;;15.73;6.40;;;;;;;5.07;100.00;101784.84;5156548;28;20023;-77
2021/11/23 05:16:06;;;;;;;11.55;6.20;;;;;;;4.99;100.00;101783.91;5158160;28;20031;-75
2021/11/23 05:18:37;;;;;;;13.25;6.60;;;;;;;4.93;100.00;101777.81;5153760;28;20496;-77
2021/11/23 05:21:07;;;;;;;13.45;6.25;;;;;;;4.85;100.00;101770.03;5161423;28;20393;-79
2021/11/23 05:23:37;;;;;;;13.68;6.85;;;;;;;4.83;100.00;101774.31;5145880;28;20095;-78
2021/11/23 05:26:08;;;;;;;13.32;6.40;;;;;;;4.86;100.00;101770.88;5145299;28;20037;-78
2021/11/23 05:28:38;;;;;;;14.13;7.00;;;;;;;4.82;100.00;101763.97;5164850;28;20030;-78
2021/11/23 05:31:09;;;;;;;11.45;6.60;;;;;;;4.81;100.00;101760.50;5147888;28;20091;-79
2021/11/23 05:33:39;;;;;;;12.52;6.90;;;;;;;4.93;100.00;101763.16;5148284;28;20026;-77
2021/11/23 05:36:10;;;;;;;15.75;7.13;;;;;;;4.90;100.00;101767.44;5145900;28;20049;-77
2021/11/23 05:38:40;;;;;;;18.15;7.47;;;;;;;5.05;100.00;101767.56;5164676;28;20031;-79
2021/11/23 05:41:10;;;;;;;15.45;7.38;;;;;;;4.96;100.00;101763.19;5161765;23;20022;-82
2021/11/23 05:43:42;;;;;;;14.05;6.90;;;;;;;4.86;100.00;101769.19;5183599;28;20042;-81
2021/11/23 05:46:14;;;;;;;16.55;7.72;;;;;;;4.90;100.00;101767.44;5207840;28;20022;-80
2021/11/23 05:48:44;;;;;;;13.02;7.22;;;;;;;4.88;100.00;101767.47;5193376;28;20037;-80
2021/11/23 05:51:14;;;;;;;14.63;7.85;;;;;;;4.87;100.00;101770.91;5206921;28;20049;-80
2021/11/23 05:53:45;;;;;;;17.58;7.78;;;;;;;4.87;100.00;101770.91;5207073;28;20022;-81
2021/11/23 05:56:15;;;;;;;14.50;7.53;;;;;;;4.95;100.00;101765.78;5203034;28;20025;-80
2021/11/23 05:58:46;;;;;;;13.55;7.75;;;;;;;4.90;100.00;101770.03;5202761;28;20025;-82
2021/11/23 06:01:17;;;;;;;13.77;7.53;;;;;;;4.98;100.00;101779.59;5197237;28;20491;-80
2021/11/23 06:03:47;;;;;;;14.13;7.70;;;;;;;4.91;100.00;101775.25;5201502;28;20098;-81
2021/11/23 06:06:17;;;;;;;16.20;8.13;;;;;;;5.03;100.00;101777.91;5196847;28;20029;-82
2021/11/23 06:08:51;;;;;;;14.88;7.82;;;;;;;4.99;100.00;101783.91;5198778;28;20087;-81
2021/11/23 06:11:32;;;;;;;18.00;8.02;;;;;;;4.99;100.00;101789.09;5193541;28;20034;-82
2021/11/23 06:14:06;;;;;;;13.32;7.63;;;;;;;4.99;100.00;101796.88;5192397;28;20026;-82
2021/11/23 06:16:38;;;;;;;14.77;8.50;;;;;;;4.86;100.00;101797.66;5195203;28;20065;-82
2021/11/23 06:19:23;;;;;;;18.40;8.60;;;;;;;4.94;100.00;101801.16;5189470;28;20508;-82
2021/11/23 06:22:00;;;;;;;17.77;8.10;;;;;;;4.90;100.00;101796.81;5199381;28;20108;-81
2021/11/23 06:24:36;;;;;;;13.43;7.70;;;;;;;4.96;100.00;101806.38;5195758;28;20033;-81
2021/11/23 06:27:13;;;;;;;15.80;8.07;;;;;;;5.13;100.00;101808.19;5192859;28;20022;-81
2021/11/23 06:29:47;;;;;;;14.48;8.70;;;;;;;5.14;100.00;101815.09;5190528;28;20026;-81
2021/11/23 06:32:18;;;;;;;14.85;8.50;;;;;;;5.08;100.00;101809.91;5198731;28;20025;-82
2021/11/23 06:34:49;;;;;;;13.60;7.38;;;;;;;5.06;100.00;101815.91;5200833;28;20076;-82
2021/11/23 06:37:25;;;;;;;15.35;7.93;;;;;;;5.20;100.00;101815.16;5202246;28;20101;-82
2021/11/23 06:40:10;;;;;;;16.27;7.93;;;;;;;5.12;100.00;101822.00;5195037;28;20021;-82
2021/11/23 06:42:41;;;;;;;11.45;5.93;;;;;;;5.07;100.00;101823.72;5192804;28;20064;-82
2021/11/23 06:45:13;;;;;;;13.40;7.95;;;;;;;5.15;100.00;101827.19;5193665;28;20022;-82
2021/11/23 06:47:46;;;;;;;16.77;7.80;;;;;;;5.07;100.00;101817.66;5190733;28;20396;-82
2021/11/23 06:50:16;;;;;;;15.20;7.90;;;;;;;5.18;100.00;101822.03;5194896;28;20256;-82
2021/11/23 06:52:46;;;;;;;16.10;8.63;;;;;;;5.09;100.00;101823.69;5196556;28;20076;-83
2021/11/23 06:55:17;;;;;;;14.05;7.93;;;;;;;5.18;100.00;101826.38;5190982;28;20044;-82
2021/11/23 06:57:55;;;;;;;14.15;8.00;;;;;;;5.21;100.00;101832.44;5194428;28;20040;-81
2021/11/23 07:00:27;;;;;;;15.63;8.13;;;;;;;5.17;100.00;101835.00;5190912;28;20242;-83
2021/11/23 07:02:58;;;;;;;14.98;8.32;;;;;;;5.23;100.00;101835.03;5192559;28;20044;-82
2021/11/23 07:05:28;;;;;;;14.00;7.85;;;;;;;5.22;100.00;101836.75;5198096;28;20029;-82
2021/11/23 07:07:59;;;;;;;12.98;8.10;;;;;;;5.30;100.00;101839.41;5194908;28;20522;-82
2021/11/23 07:10:30;;;;;;;17.58;8.93;;;;;;;5.32;100.00;101840.28;5193344;28;20036;-82
2021/11/23 07:13:01;;;;;;;15.13;8.07;;;;;;;5.29;100.00;101838.53;5195552;28;20025;-82
2021/11/23 07:15:31;;;;;;;14.68;8.27;;;;;;;5.41;100.00;101838.59;5189653;28;20534;-82
2021/11/23 07:18:02;;;;;;;16.88;7.82;;;;;;;5.35;100.00;101830.78;5181957;28;20040;-82
2021/11/23 07:20:32;;;;;;;14.85;8.25;;;;;;;5.25;100.00;101834.19;5187348;28;20022;-82
2021/11/23 07:23:03;;;;;;;13.02;8.15;;;;;;;5.29;100.00;101842.84;5188345;28;20021;-82
2021/11/23 07:25:33;;;;;;;14.65;8.60;;;;;;;5.28;100.00;101844.56;5190104;28;20410;-82
2021/11/23 07:28:04;;;;;;;16.25;8.20;;;;;;;5.16;100.00;101844.47;5189159;28;20083;-82
2021/11/23 07:30:35;;;;;;;15.05;8.82;;;;;;;5.29;100.00;101841.13;5194329;28;20064;-82
2021/11/23 07:33:05;;;;;;;16.63;8.77;;;;;;;5.37;100.00;101847.22;5197103;28;20022;-82
2021/11/23 07:35:36;;;;;;;16.67;9.40;;;;;;;5.28;100.00;101849.75;5191324;28;20224;-82
2021/11/23 07:38:06;;;;;;;14.85;9.18;;;;;;;5.45;100.00;101851.59;5194350;28;20025;-82
2021/11/23 07:40:37;;;;;;;15.55;8.55;;;;;;;5.38;100.00;101849.81;5194613;28;20029;-82
2021/11/23 07:43:07;;;;;;;14.82;9.32;;;;;;;5.46;100.00;101860.22;5194771;28;20030;-82
2021/11/23 07:45:39;;;;;;;17.92;9.55;;;;;;;5.68;100.00;101854.28;5192299;28;20033;-82
2021/11/23 07:48:10;;;;;;;15.18;9.32;;;;;;;5.66;100.00;101864.66;5191499;28;20025;-82
2021/11/23 07:50:41;;;;;;;14.98;9.02;;;;;;;5.62;100.00;101872.41;5193597;28;20036;-82
2021/11/23 07:53:11;;;;;;;18.67;9.38;;;;;;;5.72;100.00;101863.81;5194765;28;20032;-82
2021/11/23 07:55:42;;;;;;;15.18;8.63;;;;;;;5.72;100.00;101869.00;5193678;28;20025;-83
2021/11/23 07:58:12;;;;;;;14.40;8.57;;;;;;;5.77;100.00;101869.91;5192407;28;20058;-82
2021/11/23 08:00:43;;;;;;;13.68;8.20;;;;;;;5.76;100.00;101870.75;5196001;28;20079;-82
2021/11/23 08:03:13;;;;;;;13.38;8.95;;;;;;;5.85;100.00;101878.59;5193284;28;20022;-82
2021/11/23 08:05:44;;;;;;;13.43;8.18;;;;;;;5.66;100.00;101880.22;5189718;28;20037;-82
2021/11/23 08:08:14;;;;;;;16.13;8.48;;;;;;;5.71;100.00;101888.88;5192990;28;20030;-81
2021/11/23 08:10:45;;;;;;;15.13;8.20;;;;;;;5.80;100.00;101894.16;5192124;28;20091;-82
2021/11/23 08:13:16;;;;;;;15.82;9.30;;;;;;;5.67;100.00;101891.44;5191338;28;20080;-82
2021/11/23 08:15:46;;;;;;;18.95;9.02;;;;;;;5.74;100.00;101890.63;5190800;28;20061;-82
2021/11/23 08:18:16;;;;;;;14.85;9.25;;;;;;;5.72;100.00;101889.75;5186966;28;20034;-82
2021/11/23 08:20:47;;;;;;;16.23;8.90;;;;;;;5.75;100.00;101900.16;5191267;28;20018;-82
2021/11/23 08:23:17;;;;;;;14.65;8.38;;;;;;;5.74;100.00;101899.25;5189167;28;20057;-82
2021/11/23 08:25:48;;;;;;;16.75;8.10;;;;;;;5.70;100.00;101891.44;5190860;28;20026;-82
2021/11/23 08:28:19;;;;;;;15.65;8.73;;;;;;;5.83;100.00;101894.16;5189962;28;20053;-82
2021/11/23 08:30:50;;;;;;;16.75;8.93;;;;;;;5.81;100.00;101884.63;5191904;28;20538;-82
2021/11/23 08:33:21;;;;;;;14.07;8.38;;;;;;;5.92;100.00;101882.97;5198488;28;20037;-82
2021/11/23 08:35:52;;;;;;;15.70;8.55;;;;;;;5.88;100.00;101883.81;5195251;28;20464;-82
2021/11/23 08:38:23;;;;;;;16.08;8.60;;;;;;;5.84;100.00;101889.84;5199160;28;20029;-82
2021/11/23 08:40:53;;;;;;;16.42;9.10;;;;;;;5.82;100.00;101891.56;5198096;28;20076;-82
2021/11/23 08:43:24;;;;;;;15.25;8.85;;;;;;;5.90;100.00;101895.06;5198050;28;20173;-82
2021/11/23 08:45:54;;;;;;;17.73;9.05;;;;;;;6.00;100.00;101892.50;5193790;28;20407;-82
2021/11/23 08:48:24;;;;;;;16.38;9.10;;;;;;;6.07;100.00;101889.06;5194706;28;20179;-82
2021/11/23 08:50:55;;;;;;;17.23;9.57;;;;;;;6.06;100.00;101891.69;5198371;28;20021;-82
2021/11/23 08:53:26;;;;;;;18.52;9.63;;;;;;;6.05;100.00;101887.34;5197147;28;20030;-82
2021/11/23 08:55:56;;;;;;;17.90;9.65;;;;;;;6.08;100.00;101896.00;5192638;28;20029;-82
2021/11/23 08:58:26;;;;;;;18.48;8.57;;;;;;;6.05;100.00;101890.78;5186535;28;20493;-82
2021/11/23 09:00:58;;;;;;;18.63;9.65;;;;;;;6.01;100.00;101891.66;5199219;28;20446;-82
2021/11/23 09:03:28;;;;;;;17.92;9.38;;;;;;;5.99;100.00;101900.28;5194103;28;20021;-82
2021/11/23 09:05:59;;;;;;;17.02;9.15;;;;;;;6.17;100.00;101895.16;5198106;28;20075;-82
2021/11/23 09:08:30;;;;;;;19.17;8.85;;;;;;;6.18;100.00;101899.47;5194246;28;20132;-82
2021/11/23 09:11:00;;;;;;;17.40;8.88;;;;;;;6.38;100.00;101910.78;5198133;28;20025;-82
2021/11/23 09:13:31;;;;;;;16.35;9.40;;;;;;;6.30;100.00;101904.72;5195748;28;20026;-82
2021/11/23 09:16:01;;;;;;;15.77;8.57;;;;;;;6.35;100.00;101908.19;5195910;28;20110;-82
2021/11/23 09:18:31;;;;;;;15.85;8.80;;;;;;;6.37;100.00;101912.53;5186212;28;20026;-82
2021/11/23 09:21:02;;;;;;;15.63;8.43;;;;;;;6.24;100.00;101912.50;5196749;28;20534;-82
2021/11/23 09:23:32;;;;;;;18.02;8.98;;;;;;;6.30;100.00;101909.91;5199997;28;20025;-82
2021/11/23 09:26:03;;;;;;;17.98;9.75;;;;;;;6.34;100.00;101922.91;5197082;28;20022;-82
2021/11/23 09:28:33;;;;;;;17.65;9.38;;;;;;;6.40;100.00;101920.31;5198179;28;20025;-82
2021/11/23 09:31:05;;;;;;;18.67;9.43;;;;;;;6.33;100.00;101925.50;5197105;28;20434;-82
2021/11/23 09:33:35;;;;;;;14.38;9.05;;;;;;;6.44;100.00;101916.88;5198764;28;20451;-82
2021/11/23 09:36:07;;;;;;;18.48;9.63;;;;;;;6.34;100.00;101924.63;5196624;28;20072;-82
2021/11/23 09:38:38;;;;;;;24.55;11.75;;;;;;;6.34;100.00;101924.63;5198595;28;20041;-82
2021/11/23 09:41:09;;;;;;;17.42;9.15;;;;;;;6.37;100.00;101927.22;5198274;28;20025;-82
2021/11/23 09:43:40;;;;;;;17.20;9.55;;;;;;;6.36;100.00;101928.09;5200491;28;20039;-82
2021/11/23 09:46:11;;;;;;;16.23;9.27;;;;;;;6.49;100.00;101933.34;5196542;28;20025;-82
2021/11/23 09:48:45;;;;;;;18.40;9.20;;;;;;;6.48;100.00;101925.53;5194480;28;20473;-82
2021/11/23 09:51:23;;;;;;;14.38;8.77;;;;;;;6.39;100.00;101930.72;5196002;28;20021;-82
2021/11/23 09:53:56;;;;;;;18.23;10.05;;;;;;;6.55;100.00;101935.06;5195625;28;21023;-82
2021/11/23 09:56:27;;;;;;;16.88;9.27;;;;;;;6.42;100.00;101934.19;5195653;28;20072;-82
2021/11/23 09:58:58;;;;;;;20.08;10.45;;;;;;;6.54;100.00;101930.75;5193296;28;20556;-82
2021/11/23 10:01:46;;;;;;;22.48;10.00;;;;;;;6.42;100.00;101912.56;5199162;28;20029;-82
2021/11/23 10:04:18;;;;;;;22.40;10.27;;;;;;;6.46;100.00;101915.13;5193315;28;20290;-82
2021/11/23 10:07:08;;;;;;;19.42;10.40;;;;;;;6.63;100.00;101915.19;5198924;28;20013;-82
2021/11/23 10:09:39;;;;;;;20.08;10.70;;;;;;;6.68;100.00;101908.25;5196904;28;20511;-82
2021/11/23 10:12:22;;;;;;;19.40;9.88;;;;;;;6.65;100.00;101914.34;5198457;28;20028;-82
2021/11/23 10:15:11;;;;;;;17.98;10.38;;;;;;;6.75;100.00;101910.03;5200034;28;20026;-82
2021/11/23 10:17:46;;;;;;;18.30;10.38;;;;;;;6.95;100.00;101905.69;5186427;28;20477;-80
2021/11/23 10:20:26;;;;;;;18.15;10.63;;;;;;;6.95;100.00;101910.91;5193132;28;20010;-80
2021/11/23 10:23:14;;;;;;;18.85;10.30;;;;;;;6.76;100.00;101910.00;5196305;28;20029;-80
2021/11/23 10:25:48;;;;;;;15.98;9.38;;;;;;;6.84;100.00;101918.69;5195078;28;20026;-80
2021/11/23 10:28:21;;;;;;;18.00;10.23;;;;;;;6.91;100.00;101917.81;5196728;28;20033;-80
2021/11/23 10:30:51;;;;;;;16.60;9.80;;;;;;;6.88;100.00;101919.53;5196537;28;20030;-80
2021/11/23 10:33:22;;;;;;;15.10;9.45;;;;;;;6.87;100.00;101923.00;5197549;28;20052;-80
2021/11/23 10:35:58;;;;;;;18.02;9.93;;;;;;;6.96;100.00;101920.44;5195890;28;20021;-80
2021/11/23 10:38:29;;;;;;;17.45;9.88;;;;;;;6.82;100.00;101915.22;5197302;28;20442;-80
2021/11/23 10:41:06;;;;;;;17.10;9.75;;;;;;;7.00;100.00;101914.34;5194792;28;20140;-80
2021/11/23 10:43:39;;;;;;;18.98;9.65;;;;;;;6.99;100.00;101910.91;5194416;28;20022;-80
2021/11/23 10:46:18;;;;;;;19.48;11.05;;;;;;;6.97;100.00;101915.22;5196155;28;20018;-80
2021/11/23 10:49:00;;;;;;;16.27;10.15;;;;;;;6.78;100.00;101912.63;5187871;28;20042;-80
2021/11/23 10:51:40;;;;;;;19.70;10.57;;;;;;;6.84;100.00;101908.28;5191957;28;20029;-80
2021/11/23 10:54:16;;;;;;;18.15;10.30;;;;;;;6.91;100.00;101910.03;5194031;28;20021;-80
2021/11/23 10:57:04;;;;;;;;;;;;;;;7.08;100.00;101912.66;5194946;28;20037;-80
2021/11/23 10:59:37;;;;;;;19.52;9.13;;;;;;;6.83;100.00;101903.09;5190640;28;20433;-80
2021/11/23 11:02:07;;;;;;;17.90;10.15;;;;;;;6.87;100.00;101902.22;5197113;28;20029;-80
2021/11/23 11:04:40;;;;;;;20.27;10.00;;;;;;;6.86;100.00;101901.38;5195473;28;20021;-80
2021/11/23 11:07:11;;;;;;;19.73;9.45;;;;;;;6.99;100.00;101907.44;5198286;28;20021;-80
2021/11/23 11:09:43;;;;;;;14.95;9.13;;;;;;;6.91;100.00;101898.78;5197160;28;20096;-80
2021/11/23 11:12:13;;;;;;;18.10;10.27;;;;;;;6.82;100.00;101907.44;5196780;28;20028;-80
2021/11/23 11:14:45;;;;;;;17.27;9.75;;;;;;;6.95;100.00;101901.34;5196549;28;20120;-80
2021/11/23 11:17:16;;;;;;;18.98;11.02;;;;;;;6.89;100.00;101910.88;5195024;28;20198;-80
2021/11/23 11:19:49;;;;;;;17.20;10.13;;;;;;;6.96;100.00;101907.44;5192401;28;20026;-80
2021/11/23 11:22:22;;;;;;;18.98;10.55;;;;;;;6.92;100.00;101905.72;5196339;28;20044;-80
2021/11/23 11:25:12;;;;;;;20.05;11.43;;;;;;;7.02;100.00;101904.81;5197014;28;20021;-80
2021/11/23 11:27:48;;;;;;;18.33;10.10;;;;;;;6.91;100.00;101909.16;5186970;28;20061;-80
2021/11/23 11:30:32;;;;;;;21.80;10.30;;;;;;;6.90;100.00;101904.84;5194448;28;20072;-81
2021/11/23 11:33:05;;;;;;;17.20;10.52;;;;;;;6.75;100.00;101903.06;5194932;28;20121;-80
2021/11/23 11:35:39;;;;;;;19.45;10.23;;;;;;;6.83;100.00;101909.16;5198495;28;20056;-80
2021/11/23 11:38:25;;;;;;;20.15;10.05;;;;;;;6.76;100.00;101909.16;5197976;28;20029;-80
2021/11/23 11:40:57;;;;;;;20.50;10.57;;;;;;;6.72;100.00;101905.69;5195594;28;20033;-80